Time,TemperatureF,DewpointF,PressureIn,WindDirection,WindDirectionDegrees,WindSpeedMPH,WindSpeedGustMPH,Humidity,HourlyPrecipIn,Conditions,Clouds,dailyrainin,SoftwareType,DateUTC
2013-07-02 00:00:00,74.3,74.3,29.95,SSW,192,0.0,5.0,100,0.00,,,0.00,WeatherDisplay:10.37,2013-07-02 04:00:00,
2013-07-02 00:23:00,74.3,74.3,29.95,South,185,2.0,5.0,100,0.00,,,0.00,WeatherDisplay:10.37,2013-07-02 04:23:00,
2013-07-02 01:00:00,74.0,74.0,29.96,SSW,209,0.0,7.0,100,0.00,,,0.00,WeatherDisplay:10.37,2013-07-02 05:00:00,
2013-07-02 02:00:00,73.9,73.9,29.96,SW,219,1.0,12.0,100,0.00,,,0.00,WeatherDisplay:10.37,2013-07-02 06:00:00,
2013-07-02 03:00:00,73.8,73.8,29.97,SW,218,1.0,12.0,100,0.00,,,0.00,WeatherDisplay:10.37,2013-07-02 07:00:00,
2013-07-02 04:00:00,73.4,73.4,29.98,SW,218,1.0,7.0,100,0.01,,,0.01,WeatherDisplay:10.37,2013-07-02 08:00:00,
2013-07-02 05:00:00,73.0,73.0,29.99,SSW,212,1.0,5.0,100,0.01,,,0.02,WeatherDisplay:10.37,2013-07-02 09:00:00,
2013-07-02 06:00:00,73.0,73.0,30.01,SSW,201,0.0,4.0,100,0.00,,,0.02,WeatherDisplay:10.37,2013-07-02 10:00:00,
2013-07-02 07:00:00,73.0,73.0,30.03,South,186,0.0,5.0,100,0.00,,,0.02,WeatherDisplay:10.37,2013-07-02 11:00:00,
2013-07-02 08:00:00,73.6,73.6,30.05,South,180,0.0,5.0,100,0.00,,,0.02,WeatherDisplay:10.37,2013-07-02 12:00:00,
2013-07-02 09:00:00,74.2,74.2,30.07,SW,229,1.0,6.0,100,0.00,,,0.02,WeatherDisplay:10.37,2013-07-02 13:00:00,
2013-07-02 10:00:00,76.1,76.1,30.07,SSW,211,1.0,7.0,100,0.00,,,0.02,WeatherDisplay:10.37,2013-07-02 14:00:00,
2013-07-02 11:00:00,76.2,76.2,30.08,SW,228,0.0,12.0,100,0.02,RA,,0.04,WeatherDisplay:10.37,2013-07-02 15:00:00,
2013-07-02 12:00:00,73.3,73.3,30.10,SW,219,0.0,12.0,100,0.10,,,0.14,WeatherDisplay:10.37,2013-07-02 16:00:00,
2013-07-02 13:00:00,71.9,71.9,30.10,SW,220,2.0,12.0,100,0.15,RA,,0.29,WeatherDisplay:10.37,2013-07-02 17:00:00,
2013-07-02 14:00:00,72.6,72.6,30.10,SSW,197,0.0,5.0,100,0.04,RA,,0.33,WeatherDisplay:10.37,2013-07-02 18:00:00,
2013-07-02 15:00:00,74.0,74.0,30.11,SSW,207,0.0,5.0,100,0.00,,,0.33,WeatherDisplay:10.37,2013-07-02 19:00:00,
2013-07-02 16:00:00,74.1,74.1,30.11,SSW,206,1.0,7.0,100,0.01,,,0.34,WeatherDisplay:10.37,2013-07-02 20:00:00,
2013-07-02 17:00:00,74.2,74.2,30.10,South,180,0.0,4.0,100,0.01,,,0.35,WeatherDisplay:10.37,2013-07-02 21:00:00,
2013-07-02 18:00:00,74.4,74.4,30.08,ENE,71,0.0,3.0,100,0.00,,,0.35,WeatherDisplay:10.37,2013-07-02 22:00:00,
2013-07-02 19:00:00,74.0,74.0,30.10,SE,146,0.0,4.0,100,0.00,,,0.35,WeatherDisplay:10.37,2013-07-02 23:00:00,
2013-07-02 20:00:00,73.8,73.8,30.12,SSW,199,0.0,4.0,100,0.00,,,0.35,WeatherDisplay:10.37,2013-07-03 00:00:00,
2013-07-02 21:00:00,73.1,73.1,30.13,South,174,0.0,4.0,100,0.01,,,0.36,WeatherDisplay:10.37,2013-07-03 01:00:00,
2013-07-02 22:00:00,72.9,72.9,30.14,SE,130,0.0,1.0,100,0.00,,,0.36,WeatherDisplay:10.37,2013-07-03 02:00:00,
2013-07-02 23:00:00,73.0,73.0,30.14,SE,125,0.0,0.0,100,0.01,,,0.37,WeatherDisplay:10.37,2013-07-03 03:00:00,